Time;durP1;ratioP1;P1;durP2;ratioP2;P2;SDS_P1;SDS_P2;PMS_P1;PMS_P2;Temp;Humidity;BMP_temperature;BMP_pressure;BME280_temperature;BME280_humidity;BME280_pressure;Samples;Min_cycle;Max_cycle;Signal;HPM_P1;HPM_P2
2022/10/02 00:00:45;;;;;;;;;;;10.40;99.90;;;;;;5057023;28;20000;-81
2022/10/02 00:03:22;;;;;;;;;;;10.40;99.90;;;;;;5058463;28;19927;-81
2022/10/02 00:05:50;;;;;;;;;;;10.40;99.90;;;;;;5059829;28;20104;-81
2022/10/02 00:08:18;;;;;;;;;;;10.40;99.90;;;;;;5059716;28;19949;-81
2022/10/02 00:10:53;;;;;;;;;;;10.40;99.90;;;;;;5058915;28;19921;-81
2022/10/02 00:13:28;;;;;;;;;;;10.40;99.90;;;;;;5064997;28;19912;-81
2022/10/02 00:15:55;;;;;;;;;;;10.40;99.90;;;;;;5051227;28;19917;-81
2022/10/02 00:18:27;;;;;;;;;;;10.40;99.90;;;;;;5059319;28;19947;-81
2022/10/02 00:20:53;;;;;;;;;;;10.40;99.90;;;;;;5061031;28;20627;-80
2022/10/02 00:23:24;;;;;;;;;;;10.40;99.90;;;;;;5057559;28;19951;-81
2022/10/02 00:26:10;;;;;;;;;;;10.50;99.90;;;;;;5063038;28;19958;-81
2022/10/02 00:28:46;;;;;;;;;;;10.60;99.90;;;;;;5059059;28;19913;-80
2022/10/02 00:31:18;;;;;;;;;;;10.70;99.90;;;;;;5053888;28;19975;-81
2022/10/02 00:34:02;;;;;;;;;;;10.70;99.90;;;;;;5061679;28;19913;-81
2022/10/02 00:36:27;;;;;;;;;;;10.80;99.90;;;;;;5064782;28;19916;-81
2022/10/02 00:39:00;;;;;;;;;;;10.80;99.90;;;;;;5057754;28;20500;-81
2022/10/02 00:41:32;;;;;;;;;;;10.90;99.90;;;;;;5061754;28;19942;-81
2022/10/02 00:44:06;;;;;;;;;;;10.90;99.90;;;;;;5055220;28;19928;-81
2022/10/02 00:46:50;;;;;;;;;;;10.90;99.90;;;;;;5058849;28;20705;-82
2022/10/02 00:49:16;;;;;;;;;;;10.90;99.90;;;;;;5063253;28;19916;-81
2022/10/02 00:52:01;;;;;;;;;;;10.90;99.90;;;;;;5058567;28;19967;-80
2022/10/02 00:54:45;;;;;;;;;;;10.90;99.90;;;;;;5060669;28;19912;-81
2022/10/02 00:57:30;;;;;;;;;;;10.80;99.90;;;;;;5065202;28;19913;-81
2022/10/02 01:00:05;;;;;;;;;;;10.80;99.90;;;;;;5063217;28;19951;-81
2022/10/02 01:02:37;;;;;;;;;;;10.80;99.90;;;;;;5056449;28;19971;-80
2022/10/02 01:05:04;;;;;;;;;;;10.80;99.90;;;;;;5062638;28;19927;-81
2022/10/02 01:07:30;;;;;;;;;;;10.80;99.90;;;;;;5060362;28;19923;-80
2022/10/02 01:09:55;;;;;;;;;;;10.90;99.90;;;;;;5055469;28;19912;-80
2022/10/02 01:12:21;;;;;;;;;;;10.90;99.90;;;;;;5063191;28;20260;-81
2022/10/02 01:14:47;;;;;;;;;;;10.90;99.90;;;;;;5053207;28;19917;-81
2022/10/02 01:17:19;;;;;;;;;;;10.90;99.90;;;;;;5058383;28;19924;-81
2022/10/02 01:19:44;;;;;;;;;;;10.90;99.90;;;;;;5065038;28;19916;-81
2022/10/02 01:22:14;;;;;;;;;;;11.00;99.90;;;;;;5060171;28;19917;-81
2022/10/02 01:25:00;;;;;;;;;;;11.00;99.90;;;;;;5055044;28;19916;-81
2022/10/02 01:27:25;;;;;;;;;;;11.00;99.90;;;;;;5057343;28;19925;-81
2022/10/02 01:29:55;;;;;;;;;;;11.00;99.90;;;;;;5062068;28;19917;-80
2022/10/02 01:32:23;;;;;;;;;;;11.00;99.90;;;;;;5058115;28;20306;-81
2022/10/02 01:34:50;;;;;;;;;;;11.00;99.90;;;;;;5064784;28;20069;-80
2022/10/02 01:37:16;;;;;;;;;;;11.00;99.90;;;;;;5062734;28;19917;-80
2022/10/02 01:39:41;;;;;;;;;;;11.00;99.90;;;;;;5062947;28;19927;-79
2022/10/02 01:42:07;;;;;;;;;;;11.10;99.90;;;;;;5064991;28;19920;-81
2022/10/02 01:44:32;;;;;;;;;;;11.00;99.90;;;;;;5080332;28;19920;-81
2022/10/02 01:47:04;;;;;;;;;;;11.00;99.90;;;;;;5063618;28;19916;-80
2022/10/02 01:49:48;;;;;;;;;;;11.00;99.90;;;;;;5061177;28;19928;-81
2022/10/02 01:52:16;;;;;;;;;;;11.10;99.90;;;;;;5055160;28;20297;-81
2022/10/02 01:54:55;;;;;;;;;;;11.10;99.90;;;;;;5063236;28;20016;-80
2022/10/02 01:57:26;;;;;;;;;;;11.10;99.90;;;;;;5062779;28;19954;-80
2022/10/02 02:00:13;;;;;;;;;;;11.00;99.90;;;;;;5065031;28;19917;-80
2022/10/02 02:02:38;;;;;;;;;;;11.10;99.90;;;;;;5068890;28;19917;-80
2022/10/02 02:05:07;;;;;;;;;;;11.10;99.90;;;;;;5085171;28;19919;-81
2022/10/02 02:07:34;;;;;;;;;;;11.00;99.90;;;;;;5060437;28;20390;-81
2022/10/02 02:10:00;;;;;;;;;;;11.00;99.90;;;;;;5057134;28;19919;-81
2022/10/02 02:12:34;;;;;;;;;;;11.00;99.90;;;;;;5063490;28;20305;-81
2022/10/02 02:15:02;;;;;;;;;;;11.10;99.90;;;;;;5064425;28;20398;-80
2022/10/02 02:17:32;;;;;;;;;;;11.00;99.90;;;;;;5058697;28;19916;-80
2022/10/02 02:20:05;;;;;;;;;;;11.10;99.90;;;;;;5068151;28;20010;-81
2022/10/02 02:22:33;;;;;;;;;;;11.10;99.90;;;;;;5050149;28;19917;-81
2022/10/02 02:25:04;;;;;;;;;;;11.10;99.90;;;;;;5064017;28;19920;-80
2022/10/02 02:27:31;;;;;;;;;;;11.10;99.90;;;;;;5065384;28;19917;-80
2022/10/02 02:30:01;;;;;;;;;;;11.10;99.90;;;;;;5067434;28;20426;-80
2022/10/02 02:32:29;;;;;;;;;;;11.10;99.90;;;;;;5067528;28;19920;-80
2022/10/02 02:35:00;;;;;;;;;;;11.10;99.90;;;;;;5068887;28;19924;-79
2022/10/02 02:37:29;;;;;;;;;;;11.20;99.90;;;;;;5054171;28;20447;-81
2022/10/02 02:39:57;;;;;;;;;;;11.20;99.90;;;;;;5054706;28;19916;-80
2022/10/02 02:42:24;;;;;;;;;;;11.20;99.90;;;;;;5066108;28;19932;-80
2022/10/02 02:44:54;;;;;;;;;;;11.20;99.90;;;;;;5058627;28;19948;-80
2022/10/02 02:47:28;;;;;;;;;;;11.20;99.90;;;;;;5060587;28;20574;-80
2022/10/02 02:49:59;;;;;;;;;;;11.20;99.90;;;;;;5082540;28;19917;-80
2022/10/02 02:52:26;;;;;;;;;;;11.20;99.90;;;;;;5060040;28;19920;-80
2022/10/02 02:54:55;;;;;;;;;;;11.20;99.90;;;;;;5056298;28;20028;-80
2022/10/02 02:57:27;;;;;;;;;;;11.20;99.90;;;;;;5065614;28;19917;-81
2022/10/02 02:59:54;;;;;;;;;;;11.20;99.90;;;;;;5061431;28;19917;-80
2022/10/02 03:02:20;;;;;;;;;;;11.30;99.90;;;;;;5057477;28;19923;-80
2022/10/02 03:04:45;;;;;;;;;;;11.30;99.90;;;;;;5064203;28;19916;-80
2022/10/02 03:07:13;;;;;;;;;;;11.30;99.90;;;;;;5060651;28;19928;-81
2022/10/02 03:09:39;;;;;;;;;;;11.30;99.90;;;;;;5059872;28;19920;-80
2022/10/02 03:12:11;;;;;;;;;;;11.30;99.90;;;;;;5067256;28;20287;-81
2022/10/02 03:14:48;;;;;;;;;;;11.30;99.90;;;;;;5060227;28;19919;-79
2022/10/02 03:17:23;;;;;;;;;;;11.40;99.90;;;;;;5066546;28;19913;-80
2022/10/02 03:20:07;;;;;;;;;;;11.30;99.90;;;;;;5067745;28;19913;-80
2022/10/02 03:22:40;;;;;;;;;;;11.40;99.90;;;;;;5057655;28;19948;-80
2022/10/02 03:25:28;;;;;;;;;;;11.40;99.90;;;;;;5066471;28;20383;-81
2022/10/02 03:28:02;;;;;;;;;;;11.40;99.90;;;;;;5056108;28;19912;-80
2022/10/02 03:30:29;;;;;;;;;;;11.40;99.90;;;;;;5052516;28;19928;-80
2022/10/02 03:32:56;;;;;;;;;;;11.40;99.90;;;;;;5076498;28;19916;-80
2022/10/02 03:35:22;;;;;;;;;;;11.40;99.90;;;;;;5069689;28;20000;-80
2022/10/02 03:37:52;;;;;;;;;;;11.40;99.90;;;;;;5057403;28;21509;-80
2022/10/02 03:40:20;;;;;;;;;;;11.50;99.90;;;;;;5060649;28;19912;-80
2022/10/02 03:42:46;;;;;;;;;;;11.50;99.90;;;;;;5061362;28;19975;-80
2022/10/02 03:45:12;;;;;;;;;;;11.50;99.90;;;;;;5048988;28;19964;-80
2022/10/02 03:47:37;;;;;;;;;;;11.50;99.90;;;;;;5053903;28;19980;-80
2022/10/02 03:50:03;;;;;;;;;;;11.50;99.90;;;;;;5055627;28;19995;-80
2022/10/02 03:52:30;;;;;;;;;;;11.50;99.90;;;;;;5063787;28;20416;-80
2022/10/02 03:55:01;;;;;;;;;;;11.50;99.90;;;;;;5056490;28;19917;-81
2022/10/02 03:57:27;;;;;;;;;;;11.50;99.90;;;;;;5064157;28;19923;-80
2022/10/02 04:00:02;;;;;;;;;;;11.50;99.90;;;;;;5059034;28;19955;-80
2022/10/02 04:02:47;;;;;;;;;;;11.50;99.90;;;;;;5053247;28;19928;-81
2022/10/02 04:05:13;;;;;;;;;;;11.60;99.90;;;;;;5059509;28;20003;-80
2022/10/02 04:07:41;;;;;;;;;;;11.50;99.90;;;;;;5061483;28;20390;-80
2022/10/02 04:10:06;;;;;;;;;;;11.50;99.90;;;;;;5057310;28;20011;-81
2022/10/02 04:12:33;;;;;;;;;;;11.60;99.90;;;;;;5050513;28;20439;-81
2022/10/02 04:15:02;;;;;;;;;;;11.50;99.90;;;;;;5065849;28;19924;-80
2022/10/02 04:17:32;;;;;;;;;;;11.50;99.90;;;;;;5062397;28;19916;-80
2022/10/02 04:20:01;;;;;;;;;;;11.50;99.90;;;;;;5060063;28;20397;-80
2022/10/02 04:22:41;;;;;;;;;;;11.50;99.90;;;;;;5055449;28;19916;-80
2022/10/02 04:25:36;;;;;;;;;;;11.50;99.90;;;;;;5053079;28;20380;-81
2022/10/02 04:28:04;;;;;;;;;;;11.50;99.90;;;;;;5054001;28;19913;-81
2022/10/02 04:30:29;;;;;;;;;;;11.50;99.90;;;;;;5052992;28;19909;-81
2022/10/02 04:32:55;;;;;;;;;;;11.50;99.90;;;;;;5053498;28;19958;-81
2022/10/02 04:35:30;;;;;;;;;;;11.40;99.90;;;;;;5065866;28;19924;-81
2022/10/02 04:37:55;;;;;;;;;;;11.50;99.90;;;;;;5062410;28;19912;-81
2022/10/02 04:40:27;;;;;;;;;;;11.50;99.90;;;;;;5081604;28;19923;-81
2022/10/02 04:43:11;;;;;;;;;;;11.50;99.90;;;;;;5064876;28;19928;-81
2022/10/02 04:45:46;;;;;;;;;;;11.50;99.90;;;;;;5058658;28;19932;-82
2022/10/02 04:48:29;;;;;;;;;;;11.50;99.90;;;;;;5053539;28;19921;-81
2022/10/02 04:50:55;;;;;;;;;;;11.60;99.90;;;;;;5055313;28;19951;-81
2022/10/02 04:53:38;;;;;;;;;;;11.60;99.90;;;;;;5058778;28;19925;-81
2022/10/02 04:56:09;;;;;;;;;;;11.60;99.90;;;;;;5065055;28;19916;-81
2022/10/02 04:58:47;;;;;;;;;;;11.60;99.90;;;;;;5061540;28;20526;-81
2022/10/02 05:01:38;;;;;;;;;;;11.60;99.90;;;;;;5063429;28;19920;-80
2022/10/02 05:04:13;;;;;;;;;;;11.60;99.90;;;;;;5076603;28;19916;-81
2022/10/02 05:06:55;;;;;;;;;;;11.60;99.90;;;;;;5079165;28;20401;-83
2022/10/02 05:09:21;;;;;;;;;;;11.60;99.90;;;;;;5073215;28;19999;-80
2022/10/02 05:11:51;;;;;;;;;;;11.60;99.90;;;;;;5091001;28;19948;-80
2022/10/02 05:14:31;;;;;;;;;;;11.60;99.90;;;;;;5077595;28;19917;-80
2022/10/02 05:17:06;;;;;;;;;;;11.60;99.90;;;;;;5079678;28;19919;-80
2022/10/02 05:19:40;;;;;;;;;;;11.60;99.90;;;;;;5080713;28;19920;-80
2022/10/02 05:22:24;;;;;;;;;;;11.70;99.90;;;;;;5080955;28;19945;-80
2022/10/02 05:24:53;;;;;;;;;;;11.70;99.90;;;;;;5081899;28;19942;-80
2022/10/02 05:27:21;;;;;;;;;;;11.70;99.90;;;;;;5085365;28;20397;-80
2022/10/02 05:29:55;;;;;;;;;;;11.80;99.90;;;;;;5080528;28;19919;-80
2022/10/02 05:32:30;;;;;;;;;;;11.80;99.90;;;;;;5062208;28;19917;-80
2022/10/02 05:34:58;;;;;;;;;;;11.80;99.90;;;;;;5064282;28;19999;-80
2022/10/02 05:37:45;;;;;;;;;;;11.90;99.90;;;;;;5058556;28;20392;-81
2022/10/02 05:40:14;;;;;;;;;;;11.90;99.90;;;;;;5066884;28;19977;-80
2022/10/02 05:42:44;;;;;;;;;;;11.90;99.90;;;;;;5067772;28;19920;-80
2022/10/02 05:45:20;;;;;;;;;;;11.90;99.90;;;;;;5061380;28;20106;-80
2022/10/02 05:47:47;;;;;;;;;;;12.00;99.90;;;;;;5062267;28;19914;-83
2022/10/02 05:50:20;;;;;;;;;;;12.00;99.90;;;;;;5062704;28;19924;-80
2022/10/02 05:53:00;;;;;;;;;;;12.00;99.90;;;;;;5060333;28;19917;-80
2022/10/02 05:55:43;;;;;;;;;;;12.00;99.90;;;;;;5064255;28;19921;-80
2022/10/02 05:58:16;;;;;;;;;;;12.10;99.90;;;;;;5063747;28;20189;-80
2022/10/02 06:00:44;;;;;;;;;;;12.10;99.90;;;;;;5054952;28;19917;-81
2022/10/02 06:03:10;;;;;;;;;;;12.10;99.90;;;;;;5091036;28;19923;-80
2022/10/02 06:05:38;;;;;;;;;;;12.20;99.90;;;;;;5062594;28;19916;-80
2022/10/02 06:08:05;;;;;;;;;;;12.10;99.90;;;;;;5053875;28;20538;-81
2022/10/02 06:10:34;;;;;;;;;;;12.10;99.90;;;;;;5066963;28;19916;-80
2022/10/02 06:13:04;;;;;;;;;;;12.10;99.90;;;;;;5054902;28;20658;-80
2022/10/02 06:15:35;;;;;;;;;;;12.20;99.90;;;;;;5054815;28;19913;-80
2022/10/02 06:18:08;;;;;;;;;;;12.30;99.90;;;;;;5062719;28;19917;-81
2022/10/02 06:20:39;;;;;;;;;;;12.30;99.90;;;;;;5059964;28;19967;-80
2022/10/02 06:23:13;;;;;;;;;;;12.30;99.90;;;;;;5057322;28;19963;-80
2022/10/02 06:25:43;;;;;;;;;;;12.30;99.90;;;;;;5056382;28;20044;-80
2022/10/02 06:28:24;;;;;;;;;;;12.30;99.90;;;;;;5065261;28;20603;-80
2022/10/02 06:31:25;;;;;;;;;;;12.40;99.90;;;;;;5052462;28;20023;-80
2022/10/02 06:33:53;;;;;;;;;;;12.40;99.90;;;;;;4984721;28;20034;-80
2022/10/02 06:36:37;;;;;;;;;;;12.40;99.90;;;;;;5037840;28;19919;-80
2022/10/02 06:39:05;;;;;;;;;;;12.50;99.90;;;;;;5052946;28;19921;-80
2022/10/02 06:41:45;;;;;;;;;;;12.50;99.90;;;;;;5060693;28;19916;-80
2022/10/02 06:44:15;;;;;;;;;;;12.50;99.90;;;;;;5061199;28;19974;-80
2022/10/02 06:46:41;;;;;;;;;;;12.50;99.90;;;;;;5051510;28;19928;-80
2022/10/02 06:49:06;;;;;;;;;;;12.70;99.90;;;;;;5064301;28;19916;-79
2022/10/02 06:51:41;;;;;;;;;;;12.80;99.90;;;;;;5058927;28;19970;-80
2022/10/02 06:54:31;;;;;;;;;;;12.90;99.90;;;;;;5049435;28;19919;-80
2022/10/02 06:57:00;;;;;;;;;;;13.00;99.90;;;;;;5066329;28;19916;-82
2022/10/02 06:59:40;;;;;;;;;;;13.00;99.90;;;;;;5053173;28;19920;-81
2022/10/02 07:02:21;;;;;;;;;;;13.00;99.90;;;;;;5052542;28;20011;-80
2022/10/02 07:04:56;;;;;;;;;;;13.10;99.90;;;;;;5064907;28;19913;-80
2022/10/02 07:07:40;;;;;;;;;;;13.20;99.90;;;;;;5059515;28;20027;-80
2022/10/02 07:10:16;;;;;;;;;;;13.30;99.60;;;;;;5056254;28;19916;-80
2022/10/02 07:12:57;;;;;;;;;;;13.40;99.30;;;;;;5062912;28;19993;-80
2022/10/02 07:15:41;;;;;;;;;;;13.50;98.80;;;;;;5075988;28;20427;-80
2022/10/02 07:18:18;;;;;;;;;;;13.70;98.30;;;;;;5059798;28;19923;-81
2022/10/02 07:20:52;;;;;;;;;;;13.80;97.90;;;;;;5053174;28;19917;-80
2022/10/02 07:23:25;;;;;;;;;;;13.80;97.40;;;;;;5056086;28;19923;-81
2022/10/02 07:25:59;;;;;;;;;;;13.80;97.40;;;;;;5062569;28;20416;-80
2022/10/02 07:28:30;;;;;;;;;;;13.70;97.00;;;;;;5056100;28;19920;-80
2022/10/02 07:31:11;;;;;;;;;;;13.80;97.20;;;;;;5058633;28;19928;-81
2022/10/02 07:33:46;;;;;;;;;;;13.80;97.40;;;;;;5060659;28;19924;-80
2022/10/02 07:36:20;;;;;;;;;;;13.80;97.20;;;;;;5059171;28;20398;-81
2022/10/02 07:39:01;;;;;;;;;;;13.90;96.10;;;;;;5057655;28;19954;-80
2022/10/02 07:42:02;;;;;;;;;;;13.90;96.60;;;;;;5062036;28;19913;-80
2022/10/02 07:44:32;;;;;;;;;;;13.90;96.60;;;;;;4972746;28;19969;-81
2022/10/02 07:47:12;;;;;;;;;;;14.20;95.20;;;;;;5037447;28;19929;-80
2022/10/02 07:49:46;;;;;;;;;;;14.50;94.60;;;;;;5055688;28;19927;-80
2022/10/02 07:52:15;;;;;;;;;;;14.70;94.00;;;;;;5057335;28;19936;-83
2022/10/02 07:54:43;;;;;;;;;;;15.00;93.50;;;;;;5060648;28;20073;-80
2022/10/02 07:57:20;;;;;;;;;;;15.00;93.30;;;;;;5061382;28;19944;-81
2022/10/02 07:59:47;;;;;;;;;;;15.20;92.70;;;;;;5056145;28;19920;-80
2022/10/02 08:02:36;;;;;;;;;;;15.20;92.20;;;;;;5057963;28;19920;-80
2022/10/02 08:05:04;;;;;;;;;;;15.20;92.30;;;;;;5046154;28;19913;-80
2022/10/02 08:07:30;;;;;;;;;;;15.00;92.30;;;;;;5055466;28;19921;-79
2022/10/02 08:10:00;;;;;;;;;;;15.00;92.80;;;;;;5058960;28;20393;-80
2022/10/02 08:12:48;;;;;;;;;;;14.90;92.40;;;;;;5062924;28;19912;-80
2022/10/02 08:15:17;;;;;;;;;;;15.00;93.20;;;;;;5051088;28;19959;-80
2022/10/02 08:17:57;;;;;;;;;;;15.10;92.10;;;;;;5074495;28;19959;-80
2022/10/02 08:20:37;;;;;;;;;;;15.10;92.00;;;;;;5059495;28;19927;-80
2022/10/02 08:23:19;;;;;;;;;;;15.30;92.40;;;;;;5048156;28;20015;-80
2022/10/02 08:25:50;;;;;;;;;;;15.30;91.60;;;;;;5059456;28;20025;-80
2022/10/02 08:28:15;;;;;;;;;;;15.30;92.10;;;;;;5062248;28;19943;-80
2022/10/02 08:30:40;;;;;;;;;;;15.30;91.70;;;;;;5050668;28;19920;-80
2022/10/02 08:33:19;;;;;;;;;;;15.60;91.40;;;;;;5058823;28;19947;-81
2022/10/02 08:35:51;;;;;;;;;;;15.90;91.40;;;;;;5059660;28;19912;-80
2022/10/02 08:38:18;;;;;;;;;;;16.30;90.30;;;;;;5058161;28;19913;-80
2022/10/02 08:40:47;;;;;;;;;;;16.30;89.20;;;;;;5062690;28;19916;-81
2022/10/02 08:43:32;;;;;;;;;;;16.30;87.90;;;;;;5066343;28;19920;-80
2022/10/02 08:46:16;;;;;;;;;;;16.00;88.80;;;;;;5058345;28;19931;-80
2022/10/02 08:49:00;;;;;;;;;;;15.70;90.20;;;;;;5063577;28;20252;-80
2022/10/02 08:51:26;;;;;;;;;;;15.80;90.00;;;;;;5062001;28;19924;-80
2022/10/02 08:54:10;;;;;;;;;;;16.00;89.80;;;;;;5061299;28;20030;-81
2022/10/02 08:56:39;;;;;;;;;;;16.10;89.10;;;;;;5063215;28;20382;-81
2022/10/02 08:59:25;;;;;;;;;;;16.30;88.80;;;;;;5063508;28;19963;-80
2022/10/02 09:01:55;;;;;;;;;;;16.30;89.10;;;;;;5052366;28;19921;-81
2022/10/02 09:04:30;;;;;;;;;;;16.40;88.30;;;;;;5066944;28;20002;-80
2022/10/02 09:07:14;;;;;;;;;;;16.50;88.70;;;;;;5055785;28;19917;-80
2022/10/02 09:09:58;;;;;;;;;;;16.30;88.00;;;;;;5063058;28;19920;-81
2022/10/02 09:12:39;;;;;;;;;;;16.40;87.10;;;;;;5062801;28;19982;-80
2022/10/02 09:15:14;;;;;;;;;;;16.70;86.60;;;;;;5059233;28;20396;-80
2022/10/02 09:18:00;;;;;;;;;;;16.70;86.50;;;;;;5063785;28;19916;-80
2022/10/02 09:20:58;;;;;;;;;;;16.60;85.70;;;;;;5015789;28;20003;-80
2022/10/02 09:23:42;;;;;;;;;;;16.80;86.90;;;;;;5028093;28;19916;-81
2022/10/02 09:26:37;;;;;;;;;;;16.80;84.70;;;;;;5059648;28;19916;-81
2022/10/02 09:29:27;;;;;;;;;;;17.00;86.10;;;;;;5018668;28;19917;-81
2022/10/02 09:32:11;;;;;;;;;;;17.30;84.20;;;;;;5048590;28;19921;-80
2022/10/02 09:34:57;;;;;;;;;;;17.30;85.70;;;;;;5065349;28;20585;-80
2022/10/02 09:37:27;;;;;;;;;;;17.50;82.20;;;;;;5057016;28;20082;-80
2022/10/02 09:39:52;;;;;;;;;;;17.30;83.80;;;;;;5062678;28;19927;-80
2022/10/02 09:42:18;;;;;;;;;;;17.80;83.80;;;;;;5064644;28;19917;-81
2022/10/02 09:45:03;;;;;;;;;;;17.90;81.70;;;;;;5074475;28;19920;-80
2022/10/02 09:47:36;;;;;;;;;;;17.60;82.70;;;;;;5063846;28;20024;-80
2022/10/02 09:50:20;;;;;;;;;;;17.80;82.80;;;;;;5055513;28;19916;-80
2022/10/02 09:52:59;;;;;;;;;;;17.50;82.00;;;;;;5052590;28;19916;-81
2022/10/02 09:55:51;;;;;;;;;;;17.50;82.50;;;;;;5065378;28;19913;-80
2022/10/02 09:58:20;;;;;;;;;;;17.60;82.20;;;;;;5060379;28;19917;-80
2022/10/02 10:00:55;;;;;;;;;;;17.40;82.10;;;;;;5056677;28;19927;-81
2022/10/02 10:03:38;;;;;;;;;;;17.90;82.50;;;;;;5069011;28;19959;-81
2022/10/02 10:06:22;;;;;;;;;;;18.40;80.70;;;;;;5058301;28;19917;-81
2022/10/02 10:08:51;;;;;;;;;;;18.40;80.00;;;;;;5058304;28;19944;-81
2022/10/02 10:11:19;;;;;;;;;;;18.60;78.70;;;;;;5062549;28;19927;-81
2022/10/02 10:14:03;;;;;;;;;;;18.70;78.00;;;;;;5056055;28;19913;-80
2022/10/02 10:16:29;;;;;;;;;;;18.70;79.10;;;;;;5046605;28;20282;-81
2022/10/02 10:19:06;;;;;;;;;;;18.90;77.90;;;;;;5052021;28;19919;-81
2022/10/02 10:21:50;;;;;;;;;;;18.60;78.20;;;;;;5042938;28;19921;-80
2022/10/02 10:24:28;;;;;;;;;;;19.10;78.30;;;;;;5049318;28;20000;-81
2022/10/02 10:26:54;;;;;;;;;;;19.10;75.70;;;;;;5051439;28;19968;-81
2022/10/02 10:29:37;;;;;;;;;;;19.40;75.90;;;;;;5040160;28;19960;-81
2022/10/02 10:32:17;;;;;;;;;;;19.10;75.00;;;;;;5058446;28;20193;-80
2022/10/02 10:34:46;;;;;;;;;;;19.10;73.40;;;;;;5045450;28;19917;-80
2022/10/02 10:40:17;;;;;;;;;;;18.90;74.20;;;;;;5058603;28;20373;-80
2022/10/02 10:42:58;;;;;;;;;;;19.00;74.30;;;;;;5043139;28;19924;-80
2022/10/02 10:45:50;;;;;;;;;;;18.90;75.60;;;;;;5044281;28;20036;-81
2022/10/02 10:48:26;;;;;;;;;;;18.70;75.40;;;;;;5060259;28;19982;-80
2022/10/02 10:51:13;;;;;;;;;;;18.80;75.20;;;;;;5057372;28;19955;-80
2022/10/02 10:53:38;;;;;;;;;;;19.10;76.10;;;;;;5056627;28;19923;-80
2022/10/02 10:56:10;;;;;;;;;;;19.30;74.30;;;;;;5068395;28;19916;-80
2022/10/02 10:58:51;;;;;;;;;;;19.50;72.20;;;;;;5056156;28;20409;-80
2022/10/02 11:01:35;;;;;;;;;;;19.40;71.90;;;;;;5054011;28;20019;-80
2022/10/02 11:04:13;;;;;;;;;;;19.00;72.50;;;;;;5062574;28;19971;-80
2022/10/02 11:06:52;;;;;;;;;;;18.70;73.70;;;;;;5047199;28;19990;-80
2022/10/02 11:09:37;;;;;;;;;;;18.70;75.10;;;;;;5058369;28;19916;-80
2022/10/02 11:12:15;;;;;;;;;;;18.50;74.80;;;;;;5060673;28;20015;-80
2022/10/02 11:14:59;;;;;;;;;;;18.50;77.20;;;;;;5055030;28;20373;-80
2022/10/02 11:17:25;;;;;;;;;;;18.20;77.30;;;;;;5062299;28;19960;-80
2022/10/02 11:20:09;;;;;;;;;;;18.10;80.00;;;;;;5061923;28;20013;-80
2022/10/02 11:22:36;;;;;;;;;;;18.40;79.90;;;;;;5054101;28;19913;-80
2022/10/02 11:25:28;;;;;;;;;;;18.50;78.00;;;;;;5060422;28;19912;-80
2022/10/02 11:28:00;;;;;;;;;;;18.60;78.80;;;;;;5027209;28;19972;-80
2022/10/02 11:30:37;;;;;;;;;;;18.60;78.00;;;;;;5049379;28;19916;-80
2022/10/02 11:33:23;;;;;;;;;;;18.70;80.00;;;;;;5058837;28;19920;-80
2022/10/02 11:36:12;;;;;;;;;;;18.80;81.50;;;;;;5059333;28;19912;-81
2022/10/02 11:38:37;;;;;;;;;;;18.20;81.90;;;;;;5059271;28;19917;-80
2022/10/02 11:41:16;;;;;;;;;;;17.90;87.80;;;;;;5065342;28;19924;-79
2022/10/02 11:43:58;;;;;;;;;;;17.30;91.40;;;;;;5056083;28;20426;-80
2022/10/02 11:46:24;;;;;;;;;;;17.00;92.60;;;;;;5060861;28;19928;-79
2022/10/02 11:49:00;;;;;;;;;;;16.60;93.70;;;;;;5062818;28;20077;-79
2022/10/02 11:51:45;;;;;;;;;;;16.30;96.20;;;;;;5058842;28;19917;-79
2022/10/02 11:54:14;;;;;;;;;;;16.00;99.90;;;;;;5055143;28;19973;-79
2022/10/02 11:56:42;;;;;;;;;;;15.90;99.90;;;;;;5054439;28;20393;-79
2022/10/02 11:59:43;;;;;;;;;;;16.00;99.90;;;;;;5058118;28;19997;-81
2022/10/02 12:02:21;;;;;;;;;;;16.10;99.90;;;;;;4986081;28;19918;-81
2022/10/02 12:05:06;;;;;;;;;;;16.10;99.90;;;;;;5061646;28;19912;-81
2022/10/02 12:07:34;;;;;;;;;;;16.00;99.90;;;;;;5068974;28;19928;-81
2022/10/02 12:10:18;;;;;;;;;;;16.10;99.90;;;;;;5072979;28;19920;-82
2022/10/02 12:12:44;;;;;;;;;;;16.20;99.90;;;;;;5093825;28;19983;-83
2022/10/02 12:15:09;;;;;;;;;;;16.30;99.90;;;;;;5072394;28;19959;-81
2022/10/02 12:17:47;;;;;;;;;;;16.40;99.90;;;;;;5072457;28;19951;-79
2022/10/02 12:29:12;;;;;;;;;;;16.70;99.90;;;;;;5069399;28;19958;-80
2022/10/02 12:31:49;;;;;;;;;;;16.60;99.90;;;;;;5066814;28;19924;-79
2022/10/02 12:34:24;;;;;;;;;;;16.90;99.90;;;;;;5068191;28;19978;-79
2022/10/02 12:37:05;;;;;;;;;;;17.00;99.90;;;;;;5067667;28;19912;-79
2022/10/02 12:39:30;;;;;;;;;;;17.00;99.90;;;;;;5070722;28;19993;-80
2022/10/02 12:42:16;;;;;;;;;;;16.70;99.90;;;;;;5069573;28;20282;-79
2022/10/02 12:44:47;;;;;;;;;;;16.60;99.90;;;;;;5069388;28;19916;-79
2022/10/02 12:47:34;;;;;;;;;;;16.80;99.90;;;;;;5077841;28;19935;-80
2022/10/02 12:50:20;;;;;;;;;;;16.50;99.90;;;;;;5067636;28;20870;-80
2022/10/02 12:53:01;;;;;;;;;;;16.50;99.90;;;;;;5067149;28;20386;-79
2022/10/02 12:55:45;;;;;;;;;;;16.40;99.90;;;;;;5067744;28;19916;-79
2022/10/02 12:58:23;;;;;;;;;;;16.30;99.90;;;;;;5069465;28;19981;-79
2022/10/02 13:01:02;;;;;;;;;;;16.10;99.90;;;;;;5065743;28;19923;-79
2022/10/02 13:03:47;;;;;;;;;;;16.20;99.90;;;;;;5067961;28;19912;-79
2022/10/02 13:06:21;;;;;;;;;;;16.30;99.90;;;;;;5062573;28;19917;-79
2022/10/02 13:08:52;;;;;;;;;;;16.10;99.90;;;;;;5067269;28;19916;-78
2022/10/02 13:11:18;;;;;;;;;;;16.10;99.90;;;;;;5069706;28;19994;-79
2022/10/02 13:13:52;;;;;;;;;;;16.00;99.90;;;;;;5068261;28;19912;-79
2022/10/02 13:16:40;;;;;;;;;;;15.90;99.90;;;;;;5067893;28;20068;-81
2022/10/02 13:19:17;;;;;;;;;;;16.10;99.90;;;;;;5063591;28;19921;-80
2022/10/02 13:22:01;;;;;;;;;;;16.50;99.90;;;;;;5068360;28;19959;-81
2022/10/02 13:24:42;;;;;;;;;;;16.60;99.90;;;;;;5071678;28;19916;-81
2022/10/02 13:27:26;;;;;;;;;;;17.20;99.90;;;;;;5067896;28;19927;-81
2022/10/02 13:30:01;;;;;;;;;;;17.50;99.90;;;;;;5071781;28;19917;-81
2022/10/02 13:32:41;;;;;;;;;;;17.50;99.90;;;;;;5068873;28;19917;-81
2022/10/02 13:35:10;;;;;;;;;;;17.20;99.90;;;;;;5056923;28;19924;-82
2022/10/02 13:37:38;;;;;;;;;;;17.90;99.90;;;;;;5056282;28;20580;-81
2022/10/02 13:40:42;;;;;;;;;;;18.30;99.90;;;;;;5067610;28;19923;-81
2022/10/02 13:43:10;;;;;;;;;;;18.50;96.60;;;;;;5013927;28;19933;-81
2022/10/02 13:45:50;;;;;;;;;;;17.80;98.80;;;;;;5013538;28;19917;-79
2022/10/02 13:48:33;;;;;;;;;;;17.30;99.90;;;;;;5045953;28;20339;-80
2022/10/02 13:51:01;;;;;;;;;;;17.40;99.90;;;;;;5048810;28;19946;-79
2022/10/02 13:53:26;;;;;;;;;;;17.30;99.70;;;;;;5055480;28;20362;-79
2022/10/02 13:55:57;;;;;;;;;;;17.20;99.90;;;;;;5058028;28;19929;-80
2022/10/02 13:58:25;;;;;;;;;;;17.10;99.90;;;;;;5056176;28;19917;-79
2022/10/02 14:01:03;;;;;;;;;;;16.80;99.90;;;;;;5061963;28;19943;-80
2022/10/02 14:03:41;;;;;;;;;;;16.60;99.90;;;;;;5064921;28;19912;-80
2022/10/02 14:06:11;;;;;;;;;;;16.50;99.90;;;;;;5055184;28;19916;-80
2022/10/02 14:08:56;;;;;;;;;;;16.40;99.90;;;;;;5057860;28;20015;-79
2022/10/02 14:11:28;;;;;;;;;;;16.20;99.90;;;;;;5064286;28;19924;-79
2022/10/02 14:14:02;;;;;;;;;;;15.90;99.90;;;;;;5055709;28;19928;-79
2022/10/02 14:16:27;;;;;;;;;;;15.70;99.90;;;;;;5061586;28;19925;-79
2022/10/02 14:19:12;;;;;;;;;;;15.60;99.90;;;;;;5064600;28;19925;-79
2022/10/02 14:21:56;;;;;;;;;;;15.50;99.90;;;;;;5056668;28;19951;-79
2022/10/02 14:25:00;;;;;;;;;;;15.50;99.90;;;;;;5063060;28;19912;-79
2022/10/02 14:27:44;;;;;;;;;;;15.40;99.90;;;;;;5049965;28;19921;-79
2022/10/02 14:30:20;;;;;;;;;;;15.40;99.90;;;;;;5055503;28;19920;-82
2022/10/02 14:33:01;;;;;;;;;;;15.30;99.90;;;;;;5069645;28;19920;-81
2022/10/02 14:35:26;;;;;;;;;;;15.20;99.90;;;;;;5064927;28;19916;-82
2022/10/02 14:38:11;;;;;;;;;;;15.10;99.90;;;;;;5077679;28;20573;-81
2022/10/02 14:40:52;;;;;;;;;;;15.10;99.90;;;;;;5091523;28;19942;-82
2022/10/02 14:43:32;;;;;;;;;;;15.10;99.90;;;;;;5066893;28;19917;-81
2022/10/02 14:46:06;;;;;;;;;;;15.00;99.90;;;;;;5072000;28;20390;-82
2022/10/02 14:48:41;;;;;;;;;;;15.00;99.90;;;;;;5071095;28;20321;-81
2022/10/02 14:51:25;;;;;;;;;;;15.00;99.90;;;;;;5071742;28;19962;-82
2022/10/02 14:54:05;;;;;;;;;;;14.90;99.90;;;;;;5068971;28;19919;-82
2022/10/02 14:56:40;;;;;;;;;;;14.90;99.90;;;;;;5067142;28;20285;-82
2022/10/02 14:59:09;;;;;;;;;;;14.90;99.90;;;;;;5071239;28;20427;-82
2022/10/02 15:01:50;;;;;;;;;;;14.80;99.90;;;;;;5068176;28;19921;-82
2022/10/02 15:04:22;;;;;;;;;;;14.70;99.90;;;;;;5067264;28;19917;-83
2022/10/02 15:06:56;;;;;;;;;;;14.50;99.90;;;;;;5070809;28;19927;-82
2022/10/02 15:09:40;;;;;;;;;;;14.30;99.90;;;;;;5067535;28;19923;-82
2022/10/02 15:12:09;;;;;;;;;;;14.30;99.90;;;;;;5071140;28;20011;-82